Accokeek, MD

11:57 PM EDT on September 19, 2014 (GMT -0400)
Fort Hunt | Change Station
CLOSE
Current Station
Personal Weather Station
Location: Alexandria, VA
Elevation: 52 ft
Nearby Weather Stations

Elev 52 ft 38.71 °N, 77.06 °W | Updated 2 seconds ago

Overcast
Overcast
65.5 °F
Feels Like 65.5 °F
N
0.7
Wind Variable Wind from SW
Gusts 1.6 mph

Today
High -- | Low -- °F
--% Chance of Precip.
Yesterday
High -- | Low -- °F
Precip. -- in
6:53 AM 7:09 PM
Waning Crescent, 15% visible
Pressure 30.31 in
Visibility 10.0 miles
Clouds Few 5000 ft
Mostly Cloudy 8500 ft
Dew Point 62 °F
Humidity 90%
Rainfall 0.00 in
Snow Depth Not available.
UV 0 out of 12
Pollen 4.50 out of 12
Air Quality Not available.
Flu Activity Not available.
METAR KDAA 200258Z AUTO 11007KT 10SM FEW050 BKN085 19/16 A3030 RMK AO2 SLP263 T01910158 50008

More Conditions Fewer Conditions

Pressure 30.31 in
Visibility 10.0 miles
Clouds Few 5000 ft
Mostly Cloudy 8500 ft
Dew Point 62 °F
Humidity 90%
Rainfall 0.00 in
Snow Depth Not available.
UV 0 out of 12
Pollen 4.50 out of 12
Air Quality Not available.
Flu Activity Not available.
METAR KDAA 200258Z AUTO 11007KT 10SM FEW050 BKN085 19/16 A3030 RMK AO2 SLP263 T01910158 50008

More Conditions Fewer Conditions

10-Day Weather Forecast

Almanac

Astronomy

Sep. 19, 2014 Rise Set
Actual Time 6:53 AM EDT 7:09 PM EDT
Civil Twilight 6:26 AM EDT 7:36 PM EDT
Nautical Twilight 5:55 AM EDT 8:07 PM EDT
Astronomical Twilight 5:23 AM EDT 8:39 PM EDT
Moon 2:38 AM EDT (9/19) 4:35 PM EDT (9/19)
Length of Visible Light 13h 09m
Length of Day
12h 16m
Tomorrow will be 2m 30s shorter.
Waning Crescent, 15% of the Moon is Illuminated
Today
Waning Crescent
Sep 24
New
Oct 1
First Quarter
Oct 8
Full
Oct 15
Last Quarter

Today's Extremes

State Highs State Lows

Community

WunderPhotos

Upload Photos

1,754,777 photos uploaded!

WunderBlogs® & News

Nearby

Snow Depth

Station Depth Elevation
No new snow has been reported.

Earthquake Activity

City Distance Mag. Time & Date
No recent earthquake activity has been reported nearby.
Minimum magnitude displayed is 2.5.

Coastal Water Temperatures

Place Temperature
Washington, DC 73.9 °F
Baltimore, MD 75.9 °F
Solomons Island, MD 75.9 °F

Nearby Weather Stations